Huvudsida
METAR-TAF:

METAR-TAF

Flygplatser :

Nueva Loja Airport

Nueva Loja, Ecuador

latitud: 00-05-33N, longitud: 076-52-10W, höjd: 299 m

Aktuellt väderrapport

Denna rapport gjordes för 12 minuter sedan, klockan 16:00 UTC
Vind 2 kt från syd/sydväst
Temperatur 29°C
Fuktighet 62%
Tryck 1015 hPa
Sikt 10 km eller mer
Få moln på en höjd av 2000 ft

METAR: SENL 071600Z 21002KT 9999 FEW020 29/21 Q1015 RMK A2998

Tid: 11:12 (16:12 UTC)


TAF: saknas

Aktuella väderrapporter och prognoser från 4000 flygplatser (METAR- och TAF-rapporter).

De tillgängliga stationerna syns som gula och röda prickar på kartan.

För musen över prickarna för att se namnen på stationerna.

Klicka sedan för att få väderrapporter och prognoser.

För att ändra kartan: Klicka på de gröna knapparna med ett svart kors på för att zooma in; den gröna knappen med ett streck på för att zooma ut; eller på de gröna pilarna för angränsande kartor.


METAR-TAF: